sensor_id;sensor_type;location;lat;lon;timestamp;P1;durP1;ratioP1;P2;durP2;ratioP2
22673;SDS011;11504;43.334;21.918;2024-01-27T00:03:07;67.0;;;61.0;;
22673;SDS011;11504;43.334;21.918;2024-01-27T00:07:43;70.0;;;62.0;;
22673;SDS011;11504;43.334;21.918;2024-01-27T00:12:19;70.0;;;62.0;;
22673;SDS011;11504;43.334;21.918;2024-01-27T00:16:56;73.0;;;63.0;;
22673;SDS011;11504;43.334;21.918;2024-01-27T00:21:32;73.0;;;63.0;;
22673;SDS011;11504;43.334;21.918;2024-01-27T00:26:08;73.0;;;63.0;;
22673;SDS011;11504;43.334;21.918;2024-01-27T00:30:44;61.0;;;54.0;;
22673;SDS011;11504;43.334;21.918;2024-01-27T00:35:21;61.0;;;54.0;;
22673;SDS011;11504;43.334;21.918;2024-01-27T00:39:57;49.0;;;46.0;;
22673;SDS011;11504;43.334;21.918;2024-01-27T00:44:33;49.0;;;46.0;;
22673;SDS011;11504;43.334;21.918;2024-01-27T00:49:08;45.0;;;42.0;;
22673;SDS011;11504;43.334;21.918;2024-01-27T00:53:44;45.0;;;42.0;;
22673;SDS011;11504;43.334;21.918;2024-01-27T00:58:20;41.0;;;39.0;;
22673;SDS011;11504;43.334;21.918;2024-01-27T01:02:56;41.0;;;39.0;;
22673;SDS011;11504;43.334;21.918;2024-01-27T01:07:32;48.0;;;42.0;;
22673;SDS011;11504;43.334;21.918;2024-01-27T01:12:09;48.0;;;42.0;;
22673;SDS011;11504;43.334;21.918;2024-01-27T01:16:45;54.0;;;44.0;;
22673;SDS011;11504;43.334;21.918;2024-01-27T01:21:22;54.0;;;44.0;;
22673;SDS011;11504;43.334;21.918;2024-01-27T01:25:59;54.0;;;44.0;;
22673;SDS011;11504;43.334;21.918;2024-01-27T01:30:36;48.0;;;42.0;;
22673;SDS011;11504;43.334;21.918;2024-01-27T01:35:15;48.0;;;42.0;;
22673;SDS011;11504;43.334;21.918;2024-01-27T01:39:51;43.0;;;39.0;;
22673;SDS011;11504;43.334;21.918;2024-01-27T01:44:30;43.0;;;39.0;;
22673;SDS011;11504;43.334;21.918;2024-01-27T01:49:07;44.0;;;40.0;;
22673;SDS011;11504;43.334;21.918;2024-01-27T01:53:47;44.0;;;40.0;;
22673;SDS011;11504;43.334;21.918;2024-01-27T01:58:30;44.0;;;40.0;;
22673;SDS011;11504;43.334;21.918;2024-01-27T02:03:10;44.0;;;40.0;;
22673;SDS011;11504;43.334;21.918;2024-01-27T02:07:47;52.0;;;46.0;;
22673;SDS011;11504;43.334;21.918;2024-01-27T02:12:23;52.0;;;46.0;;
22673;SDS011;11504;43.334;21.918;2024-01-27T02:16:59;60.0;;;51.0;;
22673;SDS011;11504;43.334;21.918;2024-01-27T02:21:35;60.0;;;51.0;;
22673;SDS011;11504;43.334;21.918;2024-01-27T02:26:11;60.0;;;51.0;;
22673;SDS011;11504;43.334;21.918;2024-01-27T02:30:47;55.0;;;48.0;;
22673;SDS011;11504;43.334;21.918;2024-01-27T02:35:24;55.0;;;48.0;;
22673;SDS011;11504;43.334;21.918;2024-01-27T02:40:01;50.0;;;45.0;;
22673;SDS011;11504;43.334;21.918;2024-01-27T02:44:40;50.0;;;45.0;;
22673;SDS011;11504;43.334;21.918;2024-01-27T02:49:16;46.0;;;42.0;;
22673;SDS011;11504;43.334;21.918;2024-01-27T02:53:53;46.0;;;42.0;;
22673;SDS011;11504;43.334;21.918;2024-01-27T02:58:29;43.0;;;40.0;;
22673;SDS011;11504;43.334;21.918;2024-01-27T03:03:05;43.0;;;40.0;;
22673;SDS011;11504;43.334;21.918;2024-01-27T03:07:41;49.0;;;44.0;;
22673;SDS011;11504;43.334;21.918;2024-01-27T03:12:17;49.0;;;44.0;;
22673;SDS011;11504;43.334;21.918;2024-01-27T03:16:53;55.0;;;49.0;;
22673;SDS011;11504;43.334;21.918;2024-01-27T03:21:29;55.0;;;49.0;;
22673;SDS011;11504;43.334;21.918;2024-01-27T03:26:05;55.0;;;49.0;;
22673;SDS011;11504;43.334;21.918;2024-01-27T03:30:41;53.0;;;46.0;;
22673;SDS011;11504;43.334;21.918;2024-01-27T03:35:17;53.0;;;46.0;;
22673;SDS011;11504;43.334;21.918;2024-01-27T03:39:53;51.0;;;44.0;;
22673;SDS011;11504;43.334;21.918;2024-01-27T03:44:29;51.0;;;44.0;;
22673;SDS011;11504;43.334;21.918;2024-01-27T03:49:05;44.0;;;40.0;;
22673;SDS011;11504;43.334;21.918;2024-01-27T03:53:41;44.0;;;40.0;;
22673;SDS011;11504;43.334;21.918;2024-01-27T03:58:17;38.0;;;35.0;;
22673;SDS011;11504;43.334;21.918;2024-01-27T04:02:54;38.0;;;35.0;;
22673;SDS011;11504;43.334;21.918;2024-01-27T04:07:31;38.0;;;35.0;;
22673;SDS011;11504;43.334;21.918;2024-01-27T04:12:07;38.0;;;35.0;;
22673;SDS011;11504;43.334;21.918;2024-01-27T04:16:44;37.0;;;35.0;;
22673;SDS011;11504;43.334;21.918;2024-01-27T04:21:20;37.0;;;35.0;;
22673;SDS011;11504;43.334;21.918;2024-01-27T04:25:57;37.0;;;35.0;;
22673;SDS011;11504;43.334;21.918;2024-01-27T04:30:33;40.0;;;37.0;;
22673;SDS011;11504;43.334;21.918;2024-01-27T04:35:10;40.0;;;37.0;;
22673;SDS011;11504;43.334;21.918;2024-01-27T04:39:46;42.0;;;39.0;;
22673;SDS011;11504;43.334;21.918;2024-01-27T04:44:22;42.0;;;39.0;;
22673;SDS011;11504;43.334;21.918;2024-01-27T04:48:58;44.0;;;40.0;;
22673;SDS011;11504;43.334;21.918;2024-01-27T04:53:34;44.0;;;40.0;;
22673;SDS011;11504;43.334;21.918;2024-01-27T04:58:10;46.0;;;41.0;;
22673;SDS011;11504;43.334;21.918;2024-01-27T05:02:46;46.0;;;41.0;;
22673;SDS011;11504;43.334;21.918;2024-01-27T05:07:22;48.0;;;43.0;;
22673;SDS011;11504;43.334;21.918;2024-01-27T05:11:59;48.0;;;43.0;;
22673;SDS011;11504;43.334;21.918;2024-01-27T05:16:36;48.0;;;43.0;;
22673;SDS011;11504;43.334;21.918;2024-01-27T05:21:12;50.0;;;45.0;;
22673;SDS011;11504;43.334;21.918;2024-01-27T05:25:48;50.0;;;45.0;;
22673;SDS011;11504;43.334;21.918;2024-01-27T05:30:25;48.0;;;44.0;;
22673;SDS011;11504;43.334;21.918;2024-01-27T05:35:01;48.0;;;44.0;;
22673;SDS011;11504;43.334;21.918;2024-01-27T05:39:38;45.0;;;42.0;;
22673;SDS011;11504;43.334;21.918;2024-01-27T05:44:14;45.0;;;42.0;;
22673;SDS011;11504;43.334;21.918;2024-01-27T05:48:51;44.0;;;40.0;;
22673;SDS011;11504;43.334;21.918;2024-01-27T05:53:28;44.0;;;40.0;;
22673;SDS011;11504;43.334;21.918;2024-01-27T05:58:04;42.0;;;39.0;;
22673;SDS011;11504;43.334;21.918;2024-01-27T06:02:40;42.0;;;39.0;;
22673;SDS011;11504;43.334;21.918;2024-01-27T06:07:16;48.0;;;44.0;;
22673;SDS011;11504;43.334;21.918;2024-01-27T06:11:52;48.0;;;44.0;;
22673;SDS011;11504;43.334;21.918;2024-01-27T06:16:28;48.0;;;44.0;;
22673;SDS011;11504;43.334;21.918;2024-01-27T06:21:05;53.0;;;49.0;;
22673;SDS011;11504;43.334;21.918;2024-01-27T06:25:42;53.0;;;49.0;;
22673;SDS011;11504;43.334;21.918;2024-01-27T06:30:19;52.0;;;48.0;;
22673;SDS011;11504;43.334;21.918;2024-01-27T06:34:56;52.0;;;48.0;;
22673;SDS011;11504;43.334;21.918;2024-01-27T06:39:32;52.0;;;46.0;;
22673;SDS011;11504;43.334;21.918;2024-01-27T06:44:09;52.0;;;46.0;;
22673;SDS011;11504;43.334;21.918;2024-01-27T06:48:45;50.0;;;46.0;;
22673;SDS011;11504;43.334;21.918;2024-01-27T06:53:21;50.0;;;46.0;;
22673;SDS011;11504;43.334;21.918;2024-01-27T06:57:57;47.0;;;45.0;;
22673;SDS011;11504;43.334;21.918;2024-01-27T07:02:34;47.0;;;45.0;;
22673;SDS011;11504;43.334;21.918;2024-01-27T07:07:10;42.0;;;39.0;;
22673;SDS011;11504;43.334;21.918;2024-01-27T07:11:47;42.0;;;39.0;;
22673;SDS011;11504;43.334;21.918;2024-01-27T07:16:23;42.0;;;39.0;;
22673;SDS011;11504;43.334;21.918;2024-01-27T07:21:00;37.0;;;33.0;;
22673;SDS011;11504;43.334;21.918;2024-01-27T07:25:36;37.0;;;33.0;;
22673;SDS011;11504;43.334;21.918;2024-01-27T07:30:14;34.0;;;32.0;;
22673;SDS011;11504;43.334;21.918;2024-01-27T07:34:50;34.0;;;32.0;;
22673;SDS011;11504;43.334;21.918;2024-01-27T07:39:26;31.0;;;30.0;;
22673;SDS011;11504;43.334;21.918;2024-01-27T07:44:07;31.0;;;30.0;;
22673;SDS011;11504;43.334;21.918;2024-01-27T07:48:44;32.0;;;31.0;;
22673;SDS011;11504;43.334;21.918;2024-01-27T07:53:21;32.0;;;31.0;;
22673;SDS011;11504;43.334;21.918;2024-01-27T07:57:57;34.0;;;32.0;;
22673;SDS011;11504;43.334;21.918;2024-01-27T08:02:33;34.0;;;32.0;;
22673;SDS011;11504;43.334;21.918;2024-01-27T08:07:09;30.0;;;28.0;;
22673;SDS011;11504;43.334;21.918;2024-01-27T08:11:46;30.0;;;28.0;;
22673;SDS011;11504;43.334;21.918;2024-01-27T08:16:22;30.0;;;28.0;;
22673;SDS011;11504;43.334;21.918;2024-01-27T08:20:59;25.0;;;23.0;;
22673;SDS011;11504;43.334;21.918;2024-01-27T08:25:35;25.0;;;23.0;;
22673;SDS011;11504;43.334;21.918;2024-01-27T08:30:13;21.0;;;20.0;;
22673;SDS011;11504;43.334;21.918;2024-01-27T08:34:50;21.0;;;20.0;;
22673;SDS011;11504;43.334;21.918;2024-01-27T08:39:26;17.0;;;16.0;;
22673;SDS011;11504;43.334;21.918;2024-01-27T08:44:03;17.0;;;16.0;;
22673;SDS011;11504;43.334;21.918;2024-01-27T08:48:40;16.0;;;14.0;;
22673;SDS011;11504;43.334;21.918;2024-01-27T08:53:16;16.0;;;14.0;;
22673;SDS011;11504;43.334;21.918;2024-01-27T08:57:52;14.0;;;12.0;;
22673;SDS011;11504;43.334;21.918;2024-01-27T09:02:29;14.0;;;12.0;;
22673;SDS011;11504;43.334;21.918;2024-01-27T09:07:05;15.0;;;12.0;;
22673;SDS011;11504;43.334;21.918;2024-01-27T09:11:42;15.0;;;12.0;;
22673;SDS011;11504;43.334;21.918;2024-01-27T09:16:18;15.0;;;12.0;;
22673;SDS011;11504;43.334;21.918;2024-01-27T09:20:54;16.0;;;12.0;;
22673;SDS011;11504;43.334;21.918;2024-01-27T09:25:31;16.0;;;12.0;;
22673;SDS011;11504;43.334;21.918;2024-01-27T09:30:08;16.0;;;13.0;;
22673;SDS011;11504;43.334;21.918;2024-01-27T09:34:46;16.0;;;13.0;;
22673;SDS011;11504;43.334;21.918;2024-01-27T09:39:22;15.0;;;14.0;;
22673;SDS011;11504;43.334;21.918;2024-01-27T09:44:01;15.0;;;14.0;;
22673;SDS011;11504;43.334;21.918;2024-01-27T09:48:40;14.0;;;13.0;;
22673;SDS011;11504;43.334;21.918;2024-01-27T09:53:19;14.0;;;13.0;;
22673;SDS011;11504;43.334;21.918;2024-01-27T09:57:56;12.0;;;12.0;;
22673;SDS011;11504;43.334;21.918;2024-01-27T10:02:33;12.0;;;12.0;;
22673;SDS011;11504;43.334;21.918;2024-01-27T10:07:11;12.0;;;12.0;;
22673;SDS011;11504;43.334;21.918;2024-01-27T10:11:48;12.0;;;12.0;;
22673;SDS011;11504;43.334;21.918;2024-01-27T10:16:25;12.0;;;12.0;;
22673;SDS011;11504;43.334;21.918;2024-01-27T10:21:12;13.0;;;12.0;;
22673;SDS011;11504;43.334;21.918;2024-01-27T10:25:50;13.0;;;12.0;;
22673;SDS011;11504;43.334;21.918;2024-01-27T10:30:27;13.0;;;12.0;;
22673;SDS011;11504;43.334;21.918;2024-01-27T10:35:05;13.0;;;12.0;;
22673;SDS011;11504;43.334;21.918;2024-01-27T10:39:44;13.0;;;12.0;;
22673;SDS011;11504;43.334;21.918;2024-01-27T10:44:20;13.0;;;12.0;;
22673;SDS011;11504;43.334;21.918;2024-01-27T10:48:57;15.0;;;14.0;;
22673;SDS011;11504;43.334;21.918;2024-01-27T10:53:39;15.0;;;14.0;;
22673;SDS011;11504;43.334;21.918;2024-01-27T10:58:24;17.0;;;15.0;;
22673;SDS011;11504;43.334;21.918;2024-01-27T11:03:06;17.0;;;15.0;;
22673;SDS011;11504;43.334;21.918;2024-01-27T11:07:47;16.0;;;14.0;;
22673;SDS011;11504;43.334;21.918;2024-01-27T11:12:25;16.0;;;14.0;;
22673;SDS011;11504;43.334;21.918;2024-01-27T11:17:04;16.0;;;14.0;;
22673;SDS011;11504;43.334;21.918;2024-01-27T11:21:40;14.0;;;13.0;;
22673;SDS011;11504;43.334;21.918;2024-01-27T11:26:20;14.0;;;13.0;;
22673;SDS011;11504;43.334;21.918;2024-01-27T11:31:03;14.0;;;13.0;;
22673;SDS011;11504;43.334;21.918;2024-01-27T11:35:43;14.0;;;13.0;;
22673;SDS011;11504;43.334;21.918;2024-01-27T11:40:19;14.0;;;13.0;;
22673;SDS011;11504;43.334;21.918;2024-01-27T11:44:55;14.0;;;13.0;;
22673;SDS011;11504;43.334;21.918;2024-01-27T11:49:33;14.0;;;13.0;;
22673;SDS011;11504;43.334;21.918;2024-01-27T11:54:09;14.0;;;13.0;;
22673;SDS011;11504;43.334;21.918;2024-01-27T11:58:48;15.0;;;13.0;;
22673;SDS011;11504;43.334;21.918;2024-01-27T12:03:25;15.0;;;13.0;;
22673;SDS011;11504;43.334;21.918;2024-01-27T12:08:02;14.0;;;12.0;;
22673;SDS011;11504;43.334;21.918;2024-01-27T12:12:42;14.0;;;12.0;;
22673;SDS011;11504;43.334;21.918;2024-01-27T12:17:22;12.0;;;11.0;;
22673;SDS011;11504;43.334;21.918;2024-01-27T12:21:59;12.0;;;11.0;;
22673;SDS011;11504;43.334;21.918;2024-01-27T12:26:37;12.0;;;11.0;;
22673;SDS011;11504;43.334;21.918;2024-01-27T12:31:15;10.0;;;10.0;;
22673;SDS011;11504;43.334;21.918;2024-01-27T12:35:53;10.0;;;10.0;;
22673;SDS011;11504;43.334;21.918;2024-01-27T12:40:31;9.0;;;9.0;;
22673;SDS011;11504;43.334;21.918;2024-01-27T12:45:08;9.0;;;9.0;;
22673;SDS011;11504;43.334;21.918;2024-01-27T12:49:45;9.0;;;9.0;;
22673;SDS011;11504;43.334;21.918;2024-01-27T12:54:21;9.0;;;9.0;;
22673;SDS011;11504;43.334;21.918;2024-01-27T12:58:57;9.0;;;9.0;;
22673;SDS011;11504;43.334;21.918;2024-01-27T13:03:34;9.0;;;9.0;;
22673;SDS011;11504;43.334;21.918;2024-01-27T13:08:10;10.0;;;9.0;;
22673;SDS011;11504;43.334;21.918;2024-01-27T13:12:47;10.0;;;9.0;;
22673;SDS011;11504;43.334;21.918;2024-01-27T13:17:23;11.0;;;9.0;;
22673;SDS011;11504;43.334;21.918;2024-01-27T13:21:59;11.0;;;9.0;;
22673;SDS011;11504;43.334;21.918;2024-01-27T13:26:35;11.0;;;9.0;;
22673;SDS011;11504;43.334;21.918;2024-01-27T13:31:11;13.0;;;12.0;;
22673;SDS011;11504;43.334;21.918;2024-01-27T13:35:48;13.0;;;12.0;;
22673;SDS011;11504;43.334;21.918;2024-01-27T13:40:25;15.0;;;14.0;;
22673;SDS011;11504;43.334;21.918;2024-01-27T13:45:01;15.0;;;14.0;;
22673;SDS011;11504;43.334;21.918;2024-01-27T13:49:38;13.0;;;12.0;;
22673;SDS011;11504;43.334;21.918;2024-01-27T13:54:14;13.0;;;12.0;;
22673;SDS011;11504;43.334;21.918;2024-01-27T13:58:51;11.0;;;10.0;;
22673;SDS011;11504;43.334;21.918;2024-01-27T14:03:27;11.0;;;10.0;;
22673;SDS011;11504;43.334;21.918;2024-01-27T14:08:04;12.0;;;10.0;;
22673;SDS011;11504;43.334;21.918;2024-01-27T14:12:42;12.0;;;10.0;;
22673;SDS011;11504;43.334;21.918;2024-01-27T14:17:18;13.0;;;11.0;;
22673;SDS011;11504;43.334;21.918;2024-01-27T14:21:54;13.0;;;11.0;;
22673;SDS011;11504;43.334;21.918;2024-01-27T14:26:31;13.0;;;11.0;;
22673;SDS011;11504;43.334;21.918;2024-01-27T14:31:07;14.0;;;12.0;;
22673;SDS011;11504;43.334;21.918;2024-01-27T14:35:43;14.0;;;12.0;;
22673;SDS011;11504;43.334;21.918;2024-01-27T14:40:20;15.0;;;12.0;;
22673;SDS011;11504;43.334;21.918;2024-01-27T14:44:56;15.0;;;12.0;;
22673;SDS011;11504;43.334;21.918;2024-01-27T14:49:32;15.0;;;12.0;;
22673;SDS011;11504;43.334;21.918;2024-01-27T14:54:09;15.0;;;12.0;;
22673;SDS011;11504;43.334;21.918;2024-01-27T15:31:00;17.0;;;16.0;;
22673;SDS011;11504;43.334;21.918;2024-01-27T15:35:36;17.0;;;16.0;;
22673;SDS011;11504;43.334;21.918;2024-01-27T15:40:14;17.0;;;16.0;;
22673;SDS011;11504;43.334;21.918;2024-01-27T15:44:50;17.0;;;16.0;;
22673;SDS011;11504;43.334;21.918;2024-01-27T15:49:27;20.0;;;17.0;;
22673;SDS011;11504;43.334;21.918;2024-01-27T15:54:03;20.0;;;17.0;;
22673;SDS011;11504;43.334;21.918;2024-01-27T15:58:40;23.0;;;18.0;;
22673;SDS011;11504;43.334;21.918;2024-01-27T16:03:16;23.0;;;18.0;;
22673;SDS011;11504;43.334;21.918;2024-01-27T16:07:52;24.0;;;19.0;;
22673;SDS011;11504;43.334;21.918;2024-01-27T16:12:29;24.0;;;19.0;;
22673;SDS011;11504;43.334;21.918;2024-01-27T16:17:05;24.0;;;19.0;;
22673;SDS011;11504;43.334;21.918;2024-01-27T16:21:41;24.0;;;20.0;;
22673;SDS011;11504;43.334;21.918;2024-01-27T16:26:18;24.0;;;20.0;;
22673;SDS011;11504;43.334;21.918;2024-01-27T16:30:54;21.0;;;18.0;;
22673;SDS011;11504;43.334;21.918;2024-01-27T16:35:30;21.0;;;18.0;;
22673;SDS011;11504;43.334;21.918;2024-01-27T16:40:08;18.0;;;17.0;;
22673;SDS011;11504;43.334;21.918;2024-01-27T16:44:44;18.0;;;17.0;;
22673;SDS011;11504;43.334;21.918;2024-01-27T16:49:20;20.0;;;19.0;;
22673;SDS011;11504;43.334;21.918;2024-01-27T16:53:56;20.0;;;19.0;;
22673;SDS011;11504;43.334;21.918;2024-01-27T16:58:32;23.0;;;21.0;;
22673;SDS011;11504;43.334;21.918;2024-01-27T17:03:08;23.0;;;21.0;;
22673;SDS011;11504;43.334;21.918;2024-01-27T17:07:44;24.0;;;22.0;;
22673;SDS011;11504;43.334;21.918;2024-01-27T17:12:20;24.0;;;22.0;;
22673;SDS011;11504;43.334;21.918;2024-01-27T17:16:56;24.0;;;22.0;;
22673;SDS011;11504;43.334;21.918;2024-01-27T17:21:32;25.0;;;23.0;;
22673;SDS011;11504;43.334;21.918;2024-01-27T17:26:08;25.0;;;23.0;;
22673;SDS011;11504;43.334;21.918;2024-01-27T17:30:44;26.0;;;23.0;;
22673;SDS011;11504;43.334;21.918;2024-01-27T17:35:21;26.0;;;23.0;;
22673;SDS011;11504;43.334;21.918;2024-01-27T17:39:57;26.0;;;23.0;;
22673;SDS011;11504;43.334;21.918;2024-01-27T17:44:35;26.0;;;23.0;;
22673;SDS011;11504;43.334;21.918;2024-01-27T17:49:12;25.0;;;22.0;;
22673;SDS011;11504;43.334;21.918;2024-01-27T17:53:48;25.0;;;22.0;;
22673;SDS011;11504;43.334;21.918;2024-01-27T17:58:25;24.0;;;22.0;;
22673;SDS011;11504;43.334;21.918;2024-01-27T18:03:01;24.0;;;22.0;;
22673;SDS011;11504;43.334;21.918;2024-01-27T18:07:38;26.0;;;24.0;;
22673;SDS011;11504;43.334;21.918;2024-01-27T18:12:15;26.0;;;24.0;;
22673;SDS011;11504;43.334;21.918;2024-01-27T18:16:51;26.0;;;24.0;;
22673;SDS011;11504;43.334;21.918;2024-01-27T18:21:27;28.0;;;27.0;;
22673;SDS011;11504;43.334;21.918;2024-01-27T18:26:03;28.0;;;27.0;;
22673;SDS011;11504;43.334;21.918;2024-01-27T18:30:39;26.0;;;24.0;;
22673;SDS011;11504;43.334;21.918;2024-01-27T18:35:16;26.0;;;24.0;;
22673;SDS011;11504;43.334;21.918;2024-01-27T18:39:53;23.0;;;21.0;;
22673;SDS011;11504;43.334;21.918;2024-01-27T18:44:29;23.0;;;21.0;;
22673;SDS011;11504;43.334;21.918;2024-01-27T18:49:06;22.0;;;19.0;;
22673;SDS011;11504;43.334;21.918;2024-01-27T18:53:42;22.0;;;19.0;;
22673;SDS011;11504;43.334;21.918;2024-01-27T18:58:19;20.0;;;17.0;;
22673;SDS011;11504;43.334;21.918;2024-01-27T19:02:55;20.0;;;17.0;;
22673;SDS011;11504;43.334;21.918;2024-01-27T19:07:31;20.0;;;17.0;;
22673;SDS011;11504;43.334;21.918;2024-01-27T19:12:07;24.0;;;22.0;;
22673;SDS011;11504;43.334;21.918;2024-01-27T19:16:45;24.0;;;22.0;;
22673;SDS011;11504;43.334;21.918;2024-01-27T19:21:21;27.0;;;26.0;;
22673;SDS011;11504;43.334;21.918;2024-01-27T19:25:56;27.0;;;26.0;;
22673;SDS011;11504;43.334;21.918;2024-01-27T19:30:33;30.0;;;26.0;;
22673;SDS011;11504;43.334;21.918;2024-01-27T19:35:10;30.0;;;26.0;;
22673;SDS011;11504;43.334;21.918;2024-01-27T19:39:45;33.0;;;26.0;;
22673;SDS011;11504;43.334;21.918;2024-01-27T19:44:22;33.0;;;26.0;;
22673;SDS011;11504;43.334;21.918;2024-01-27T19:48:59;32.0;;;27.0;;
22673;SDS011;11504;43.334;21.918;2024-01-27T19:53:35;32.0;;;27.0;;
22673;SDS011;11504;43.334;21.918;2024-01-27T19:58:11;32.0;;;28.0;;
22673;SDS011;11504;43.334;21.918;2024-01-27T20:02:47;32.0;;;28.0;;
22673;SDS011;11504;43.334;21.918;2024-01-27T20:07:23;32.0;;;28.0;;
22673;SDS011;11504;43.334;21.918;2024-01-27T20:12:00;32.0;;;28.0;;
22673;SDS011;11504;43.334;21.918;2024-01-27T20:16:36;32.0;;;28.0;;
22673;SDS011;11504;43.334;21.918;2024-01-27T20:21:12;32.0;;;29.0;;
22673;SDS011;11504;43.334;21.918;2024-01-27T20:25:49;32.0;;;29.0;;
22673;SDS011;11504;43.334;21.918;2024-01-27T20:30:26;26.0;;;22.0;;
22673;SDS011;11504;43.334;21.918;2024-01-27T20:35:04;26.0;;;22.0;;
22673;SDS011;11504;43.334;21.918;2024-01-27T20:39:43;19.0;;;16.0;;
22673;SDS011;11504;43.334;21.918;2024-01-27T20:44:19;19.0;;;16.0;;
22673;SDS011;11504;43.334;21.918;2024-01-27T20:48:56;17.0;;;15.0;;
22673;SDS011;11504;43.334;21.918;2024-01-27T20:53:32;17.0;;;15.0;;
22673;SDS011;11504;43.334;21.918;2024-01-27T20:58:08;15.0;;;14.0;;
22673;SDS011;11504;43.334;21.918;2024-01-27T21:02:44;15.0;;;14.0;;
22673;SDS011;11504;43.334;21.918;2024-01-27T21:07:20;15.0;;;14.0;;
22673;SDS011;11504;43.334;21.918;2024-01-27T21:11:56;14.0;;;12.0;;
22673;SDS011;11504;43.334;21.918;2024-01-27T21:16:32;14.0;;;12.0;;
22673;SDS011;11504;43.334;21.918;2024-01-27T21:21:09;12.0;;;11.0;;
22673;SDS011;11504;43.334;21.918;2024-01-27T21:25:45;12.0;;;11.0;;
22673;SDS011;11504;43.334;21.918;2024-01-27T21:30:21;12.0;;;10.0;;
22673;SDS011;11504;43.334;21.918;2024-01-27T21:34:57;12.0;;;10.0;;
22673;SDS011;11504;43.334;21.918;2024-01-27T21:39:33;11.0;;;10.0;;
22673;SDS011;11504;43.334;21.918;2024-01-27T21:44:09;11.0;;;10.0;;
22673;SDS011;11504;43.334;21.918;2024-01-27T21:48:46;12.0;;;11.0;;
22673;SDS011;11504;43.334;21.918;2024-01-27T21:53:22;12.0;;;11.0;;
22673;SDS011;11504;43.334;21.918;2024-01-27T21:57:59;14.0;;;12.0;;
22673;SDS011;11504;43.334;21.918;2024-01-27T22:02:35;14.0;;;12.0;;
22673;SDS011;11504;43.334;21.918;2024-01-27T22:07:11;14.0;;;12.0;;
22673;SDS011;11504;43.334;21.918;2024-01-27T22:11:47;14.0;;;12.0;;
22673;SDS011;11504;43.334;21.918;2024-01-27T22:16:22;14.0;;;12.0;;
22673;SDS011;11504;43.334;21.918;2024-01-27T22:20:58;14.0;;;11.0;;
22673;SDS011;11504;43.334;21.918;2024-01-27T22:25:34;14.0;;;11.0;;
22673;SDS011;11504;43.334;21.918;2024-01-27T22:30:11;18.0;;;14.0;;
22673;SDS011;11504;43.334;21.918;2024-01-27T22:34:49;18.0;;;14.0;;
22673;SDS011;11504;43.334;21.918;2024-01-27T22:39:25;21.0;;;16.0;;
22673;SDS011;11504;43.334;21.918;2024-01-27T22:44:01;21.0;;;16.0;;
22673;SDS011;11504;43.334;21.918;2024-01-27T22:48:38;21.0;;;16.0;;
22673;SDS011;11504;43.334;21.918;2024-01-27T22:53:14;21.0;;;16.0;;
22673;SDS011;11504;43.334;21.918;2024-01-27T22:57:51;21.0;;;17.0;;
22673;SDS011;11504;43.334;21.918;2024-01-27T23:02:27;21.0;;;17.0;;
22673;SDS011;11504;43.334;21.918;2024-01-27T23:07:04;21.0;;;17.0;;
22673;SDS011;11504;43.334;21.918;2024-01-27T23:11:40;18.0;;;15.0;;
22673;SDS011;11504;43.334;21.918;2024-01-27T23:16:16;18.0;;;15.0;;
22673;SDS011;11504;43.334;21.918;2024-01-27T23:20:53;15.0;;;13.0;;
22673;SDS011;11504;43.334;21.918;2024-01-27T23:25:29;15.0;;;13.0;;
22673;SDS011;11504;43.334;21.918;2024-01-27T23:30:07;15.0;;;13.0;;
22673;SDS011;11504;43.334;21.918;2024-01-27T23:34:43;15.0;;;13.0;;
22673;SDS011;11504;43.334;21.918;2024-01-27T23:39:19;15.0;;;13.0;;
22673;SDS011;11504;43.334;21.918;2024-01-27T23:43:55;15.0;;;13.0;;
22673;SDS011;11504;43.334;21.918;2024-01-27T23:48:31;16.0;;;14.0;;
22673;SDS011;11504;43.334;21.918;2024-01-27T23:53:07;16.0;;;14.0;;
22673;SDS011;11504;43.334;21.918;2024-01-27T23:57:43;16.0;;;14.0;;
